Time;durP1;ratioP1;P1;durP2;ratioP2;P2;SDS_P1;SDS_P2;PMS_P1;PMS_P2;Temp;Humidity;BMP_temperature;BMP_pressure;BME280_temperature;BME280_humidity;BME280_pressure;Samples;Min_cycle;Max_cycle;Signal;HPM_P1;HPM_P2
2022/04/22 00:00:01;;;;;;;6.80;5.35;;;14.90;65.10;;;;;;5074721;28;20115;-74
2022/04/22 00:02:26;;;;;;;7.22;5.10;;;14.70;65.80;;;;;;5074999;28;20035;-75
2022/04/22 00:04:52;;;;;;;9.25;5.20;;;14.70;66.10;;;;;;5074524;28;20017;-75
2022/04/22 00:07:18;;;;;;;9.23;5.07;;;14.80;66.00;;;;;;5074533;28;20028;-75
2022/04/22 00:09:43;;;;;;;5.70;4.85;;;14.80;65.90;;;;;;5074106;28;20109;-75
2022/04/22 00:12:10;;;;;;;6.53;4.82;;;14.90;65.90;;;;;;5074256;28;20052;-75
2022/04/22 00:14:35;;;;;;;7.82;4.95;;;14.80;65.80;;;;;;5074194;28;20032;-75
2022/04/22 00:17:01;;;;;;;6.32;4.97;;;14.80;65.90;;;;;;5074335;28;20038;-74
2022/04/22 00:19:27;;;;;;;6.50;5.30;;;14.80;66.20;;;;;;5074263;28;20031;-75
2022/04/22 00:21:53;;;;;;;6.18;4.75;;;14.70;66.40;;;;;;5074208;28;20024;-75
2022/04/22 00:24:19;;;;;;;8.15;5.57;;;14.60;66.60;;;;;;5074232;28;20024;-74
2022/04/22 00:26:44;;;;;;;8.45;4.88;;;14.70;66.50;;;;;;5073997;28;20084;-74
2022/04/22 00:29:11;;;;;;;8.48;5.28;;;14.70;67.30;;;;;;5074203;28;20020;-75
2022/04/22 00:31:37;;;;;;;8.05;5.68;;;14.70;66.80;;;;;;5074364;28;20099;-75
2022/04/22 00:34:02;;;;;;;8.75;5.82;;;14.60;66.80;;;;;;5073769;28;20032;-75
2022/04/22 00:36:28;;;;;;;10.82;6.53;;;14.60;67.10;;;;;;5074151;28;20373;-75
2022/04/22 00:38:53;;;;;;;8.02;5.07;;;14.50;67.30;;;;;;5074204;28;20032;-74
2022/04/22 00:41:19;;;;;;;8.73;6.22;;;14.50;67.50;;;;;;5074411;28;20448;-75
2022/04/22 00:43:48;;;;;;;6.68;4.72;;;14.50;67.60;;;;;;5073953;28;20024;-75
2022/04/22 00:46:13;;;;;;;9.95;6.03;;;14.50;67.70;;;;;;5073932;28;20093;-74
2022/04/22 00:48:39;;;;;;;10.80;5.63;;;14.50;67.70;;;;;;5073790;28;20424;-74
2022/04/22 00:51:06;;;;;;;10.93;5.78;;;14.40;67.70;;;;;;5073643;28;20144;-75
2022/04/22 00:53:35;;;;;;;8.27;5.55;;;14.40;67.80;;;;;;5073703;28;20089;-74
2022/04/22 00:56:06;;;;;;;7.07;4.05;;;14.40;67.90;;;;;;5073912;28;20058;-74
2022/04/22 00:58:35;;;;;;;9.48;6.07;;;14.40;68.10;;;;;;5073448;28;20036;-75
2022/04/22 01:01:00;;;;;;;5.15;4.05;;;14.50;68.10;;;;;;5073543;28;20382;-74
2022/04/22 01:03:26;;;;;;;7.88;5.03;;;14.50;68.20;;;;;;5073714;28;20104;-74
2022/04/22 01:11:20;;;;;;;9.13;5.20;;;14.40;68.50;;;;;;5073141;28;20055;-74
2022/04/22 01:13:46;;;;;;;7.28;5.45;;;14.30;68.90;;;;;;5073468;28;20107;-74
2022/04/22 01:16:12;;;;;;;7.47;4.78;;;14.30;69.00;;;;;;5073625;28;20047;-74
2022/04/22 01:18:37;;;;;;;6.32;4.60;;;14.20;69.10;;;;;;5073258;28;20028;-75
2022/04/22 01:21:04;;;;;;;7.25;4.95;;;14.40;68.90;;;;;;5072864;28;20139;-74
2022/04/22 01:23:30;;;;;;;8.35;6.03;;;14.30;68.90;;;;;;5072777;28;20025;-75
2022/04/22 01:25:56;;;;;;;7.63;4.82;;;14.30;69.10;;;;;;5073282;28;20025;-74
2022/04/22 01:28:25;;;;;;;6.85;4.55;;;14.30;69.20;;;;;;5073046;28;20116;-75
2022/04/22 01:31:00;;;;;;;7.32;4.93;;;14.30;69.40;;;;;;5073266;28;20032;-74
2022/04/22 01:33:25;;;;;;;9.30;4.80;;;14.30;69.10;;;;;;5073199;28;20073;-74
2022/04/22 01:35:51;;;;;;;6.32;4.63;;;14.30;69.30;;;;;;5073286;28;20020;-74
2022/04/22 01:38:17;;;;;;;9.05;5.70;;;14.30;69.20;;;;;;5073109;28;20043;-74
2022/04/22 01:40:43;;;;;;;8.80;5.10;;;14.30;69.50;;;;;;5073405;28;20503;-74
2022/04/22 01:43:08;;;;;;;8.23;4.70;;;14.20;69.70;;;;;;5072705;28;20040;-74
2022/04/22 01:45:34;;;;;;;5.78;5.18;;;14.20;69.80;;;;;;5073304;28;20101;-75
2022/04/22 01:48:00;;;;;;;6.85;4.57;;;14.10;70.20;;;;;;5073191;28;20025;-74
2022/04/22 01:50:26;;;;;;;7.00;4.38;;;14.00;70.60;;;;;;5073146;28;20371;-74
2022/04/22 01:52:52;;;;;;;9.88;5.05;;;14.10;70.80;;;;;;5073069;28;20032;-74
2022/04/22 01:55:18;;;;;;;9.52;5.70;;;14.10;70.60;;;;;;5073068;28;20070;-74
2022/04/22 01:57:43;;;;;;;7.22;4.75;;;14.00;71.00;;;;;;5072760;28;20024;-74
2022/04/22 02:00:10;;;;;;;7.85;5.50;;;13.90;71.50;;;;;;5072878;28;20032;-74
2022/04/22 02:02:36;;;;;;;8.98;4.50;;;13.90;71.60;;;;;;5072497;28;20024;-74
2022/04/22 02:05:02;;;;;;;6.97;4.45;;;13.90;71.90;;;;;;5072883;28;20116;-75
2022/04/22 02:07:28;;;;;;;7.03;5.05;;;14.00;71.50;;;;;;5072933;28;20016;-74
2022/04/22 02:09:54;;;;;;;7.63;5.47;;;14.10;71.40;;;;;;5072586;28;20110;-75
2022/04/22 02:12:19;;;;;;;8.02;5.60;;;14.10;71.50;;;;;;5072813;28;20456;-74
2022/04/22 02:14:45;;;;;;;6.32;4.88;;;14.10;71.60;;;;;;5072721;28;20063;-74
2022/04/22 02:17:10;;;;;;;9.60;5.18;;;13.90;72.10;;;;;;5072824;28;20029;-75
2022/04/22 02:19:36;;;;;;;9.85;5.00;;;13.80;72.60;;;;;;5072651;28;20021;-74
2022/04/22 02:22:02;;;;;;;7.82;5.47;;;13.80;72.80;;;;;;5072962;28;20017;-74
2022/04/22 02:24:27;;;;;;;8.00;5.40;;;13.90;73.00;;;;;;5072591;28;20027;-75
2022/04/22 02:29:37;;;;;;;9.88;5.15;;;13.80;73.60;;;;;;5072530;28;20031;-75
2022/04/22 02:32:04;;;;;;;5.20;4.00;;;13.50;74.70;;;;;;5072756;28;20033;-74
2022/04/22 02:34:29;;;;;;;9.40;4.57;;;13.30;75.70;;;;;;5075596;28;20017;-75
2022/04/22 02:36:55;;;;;;;8.23;4.65;;;13.40;76.00;;;;;;5076284;28;20168;-75
2022/04/22 02:39:20;;;;;;;6.40;3.88;;;13.60;76.00;;;;;;5076374;28;20028;-74
2022/04/22 02:47:14;;;;;;;8.25;4.90;;;13.60;76.80;;;;;;5075993;28;20043;-74
2022/04/22 02:49:44;;;;;;;9.30;5.85;;;13.60;77.50;;;;;;5075977;28;20016;-75
2022/04/22 02:52:14;;;;;;;8.43;4.88;;;13.40;78.70;;;;;;5076088;28;20086;-74
2022/04/22 02:54:40;;;;;;;8.93;4.40;;;13.40;79.70;;;;;;5076159;28;20016;-74
2022/04/22 02:57:06;;;;;;;7.97;5.47;;;13.20;80.70;;;;;;5075750;28;20115;-74
2022/04/22 02:59:33;;;;;;;9.10;5.00;;;13.30;81.50;;;;;;5075611;28;20017;-75
2022/04/22 03:01:59;;;;;;;9.65;5.32;;;13.20;82.40;;;;;;5076058;28;20115;-75
2022/04/22 03:04:26;;;;;;;8.55;5.55;;;13.00;84.20;;;;;;5076096;28;20433;-74
2022/04/22 03:06:53;;;;;;;8.00;5.40;;;12.90;85.90;;;;;;5075958;28;20035;-74
2022/04/22 03:09:19;;;;;;;7.22;4.70;;;12.90;86.40;;;;;;5075580;28;20551;-75
2022/04/22 03:11:44;;;;;;;8.75;5.90;;;13.20;86.30;;;;;;5075556;28;20115;-74
2022/04/22 03:14:11;;;;;;;7.43;5.22;;;13.30;86.50;;;;;;5075697;28;20028;-74
2022/04/22 03:16:36;;;;;;;13.13;6.47;;;13.30;87.20;;;;;;5075723;28;20048;-74
2022/04/22 03:19:02;;;;;;;9.13;5.45;;;13.30;88.30;;;;;;5075504;28;20471;-74
2022/04/22 03:21:28;;;;;;;10.98;6.03;;;13.20;89.80;;;;;;5075777;28;20024;-74
2022/04/22 03:23:53;;;;;;;8.82;6.07;;;13.20;90.30;;;;;;5075412;28;20361;-75
2022/04/22 03:26:19;;;;;;;10.98;7.03;;;13.10;90.70;;;;;;5075678;28;20463;-74
2022/04/22 03:28:47;;;;;;;8.57;5.82;;;13.10;91.20;;;;;;5075356;28;20108;-74
2022/04/22 03:31:13;;;;;;;8.50;5.70;;;13.10;91.40;;;;;;5075307;28;20163;-74
2022/04/22 03:33:39;;;;;;;9.07;5.80;;;13.20;91.40;;;;;;5075452;28;20060;-75
2022/04/22 03:36:04;;;;;;;13.10;7.40;;;13.30;91.50;;;;;;5075495;28;20077;-74
2022/04/22 03:38:30;;;;;;;12.23;7.35;;;13.30;91.70;;;;;;5075150;28;20079;-74
2022/04/22 03:40:55;;;;;;;12.35;6.88;;;13.20;92.00;;;;;;5075288;28;20510;-74
2022/04/22 03:43:23;;;;;;;9.98;6.88;;;13.20;92.40;;;;;;5075104;28;20032;-74
2022/04/22 03:45:49;;;;;;;12.73;8.63;;;13.10;92.60;;;;;;5074513;28;20056;-74
2022/04/22 03:48:18;;;;;;;12.38;7.50;;;13.20;92.60;;;;;;5075253;28;20375;-74
2022/04/22 03:50:43;;;;;;;11.30;7.00;;;13.20;92.60;;;;;;5074938;28;20538;-75
2022/04/22 03:53:12;;;;;;;12.45;7.45;;;13.30;92.50;;;;;;5074947;28;20075;-74
2022/04/22 03:55:40;;;;;;;14.80;8.02;;;13.40;92.50;;;;;;5075153;28;20027;-74
2022/04/22 03:58:12;;;;;;;11.77;7.68;;;13.40;92.40;;;;;;5074707;28;20039;-75
2022/04/22 04:00:41;;;;;;;13.80;7.85;;;13.40;92.30;;;;;;5074461;28;20480;-75
2022/04/22 04:03:09;;;;;;;10.80;8.45;;;13.40;92.40;;;;;;5074872;28;20138;-76
2022/04/22 04:05:34;;;;;;;11.73;8.88;;;13.30;92.60;;;;;;5074606;28;20025;-75
2022/04/22 04:08:00;;;;;;;11.98;7.47;;;13.30;92.80;;;;;;5074517;28;20035;-75
2022/04/22 04:16:03;;;;;;;12.98;8.40;;;13.20;93.10;;;;;;5074601;28;20035;-75
2022/04/22 04:18:29;;;;;;;11.75;8.23;;;13.00;93.50;;;;;;5074369;28;20033;-75
2022/04/22 04:23:40;;;;;;;12.43;7.80;;;13.00;93.80;;;;;;5074675;28;20034;-75
2022/04/22 04:26:06;;;;;;;11.05;8.60;;;12.80;94.10;;;;;;5074314;28;20021;-75
2022/04/22 04:28:33;;;;;;;12.32;8.32;;;12.80;94.30;;;;;;5074093;28;20025;-75
2022/04/22 04:30:59;;;;;;;13.90;8.18;;;12.80;94.40;;;;;;5074448;28;20384;-75
2022/04/22 04:33:25;;;;;;;8.35;6.88;;;12.60;94.70;;;;;;5074230;28;20032;-75
2022/04/22 04:35:50;;;;;;;11.70;8.00;;;12.60;94.90;;;;;;5073865;28;20074;-76
2022/04/22 04:38:17;;;;;;;10.50;8.63;;;12.60;94.90;;;;;;5073989;28;20127;-75
2022/04/22 04:40:46;;;;;;;10.63;8.48;;;12.60;95.10;;;;;;5074141;28;20047;-75
2022/04/22 04:43:12;;;;;;;9.23;8.00;;;12.50;95.20;;;;;;5074112;28;20429;-75
2022/04/22 04:45:37;;;;;;;11.77;8.95;;;12.50;95.40;;;;;;5074088;28;20021;-75
2022/04/22 04:48:04;;;;;;;13.18;9.35;;;12.40;95.60;;;;;;5073944;28;20510;-75
2022/04/22 04:50:30;;;;;;;9.20;7.95;;;12.30;95.90;;;;;;5073179;28;20028;-76
2022/04/22 04:52:56;;;;;;;12.38;8.93;;;12.30;95.90;;;;;;5074008;28;20119;-75
2022/04/22 04:55:22;;;;;;;10.30;6.72;;;12.50;96.10;;;;;;5073900;28;20380;-75
2022/04/22 04:57:48;;;;;;;11.00;9.30;;;12.50;95.60;;;;;;5073496;28;20032;-75
2022/04/22 05:00:14;;;;;;;12.30;9.30;;;12.60;95.50;;;;;;5073439;28;20021;-75
2022/04/22 05:02:40;;;;;;;10.77;8.52;;;12.50;95.60;;;;;;5073593;28;20028;-76
2022/04/22 05:05:07;;;;;;;9.38;8.23;;;12.50;95.70;;;;;;5073369;28;20021;-75
2022/04/22 05:07:33;;;;;;;14.55;8.52;;;12.40;95.70;;;;;;5073693;28;20025;-75
2022/04/22 05:09:59;;;;;;;10.32;8.52;;;12.40;95.80;;;;;;5073237;28;20503;-75
2022/04/22 05:12:24;;;;;;;13.23;9.27;;;12.40;96.00;;;;;;5073483;28;20100;-75
2022/04/22 05:14:50;;;;;;;9.63;8.00;;;12.40;96.00;;;;;;5073641;28;20024;-75
2022/04/22 05:17:16;;;;;;;11.05;8.65;;;12.40;96.10;;;;;;5073187;28;20052;-75
2022/04/22 05:19:41;;;;;;;12.88;9.15;;;12.40;96.00;;;;;;5073079;28;20028;-75
2022/04/22 05:22:07;;;;;;;11.45;8.35;;;12.40;96.10;;;;;;5073441;28;20030;-75
2022/04/22 05:24:34;;;;;;;11.82;9.25;;;12.40;96.10;;;;;;5073340;28;20025;-75
2022/04/22 05:27:00;;;;;;;7.47;6.65;;;12.50;96.00;;;;;;5072981;28;20028;-75
2022/04/22 05:34:55;;;;;;;11.27;9.27;;;12.30;96.30;;;;;;5073130;28;20097;-76
2022/04/22 05:37:21;;;;;;;10.95;9.32;;;12.30;96.40;;;;;;5072825;28;20477;-76
2022/04/22 05:39:47;;;;;;;12.32;10.07;;;12.40;96.30;;;;;;5073266;28;20025;-76
2022/04/22 05:42:12;;;;;;;11.10;9.38;;;12.20;96.50;;;;;;5073034;28;20046;-76
2022/04/22 05:44:38;;;;;;;12.30;10.30;;;12.10;96.70;;;;;;5072326;28;20025;-74
2022/04/22 05:47:05;;;;;;;16.98;10.23;;;12.20;96.80;;;;;;5072045;28;20025;-75
2022/04/22 05:49:31;;;;;;;11.07;8.32;;;12.20;96.80;;;;;;5071979;28;20036;-75
2022/04/22 05:51:56;;;;;;;12.23;8.15;;;12.30;97.00;;;;;;5072127;28;20028;-79
2022/04/22 05:54:22;;;;;;;13.60;9.82;;;12.40;96.60;;;;;;5071473;28;20407;-76
2022/04/22 05:56:47;;;;;;;12.90;10.45;;;12.50;96.30;;;;;;5071634;28;20035;-74
2022/04/22 05:59:13;;;;;;;12.73;9.18;;;12.30;96.60;;;;;;5072412;28;20113;-73
2022/04/22 06:01:39;;;;;;;13.35;9.85;;;12.30;96.90;;;;;;5072154;28;20032;-77
2022/04/22 06:04:04;;;;;;;10.95;9.30;;;12.30;96.80;;;;;;5072617;28;20033;-76
2022/04/22 06:06:30;;;;;;;14.00;10.25;;;12.50;96.50;;;;;;5072046;28;20020;-76
2022/04/22 06:11:40;;;;;;;11.73;9.20;;;12.40;96.40;;;;;;5076081;28;20186;-76
2022/04/22 06:14:05;;;;;;;11.05;8.85;;;12.40;96.50;;;;;;5076128;28;20074;-77
2022/04/22 06:16:31;;;;;;;11.85;10.63;;;12.60;96.20;;;;;;5076310;28;20021;-77
2022/04/22 06:18:57;;;;;;;13.70;9.65;;;12.80;95.60;;;;;;5075826;28;20556;-77
2022/04/22 06:21:22;;;;;;;11.30;8.77;;;12.60;95.60;;;;;;5076547;28;20056;-77
2022/04/22 06:23:48;;;;;;;13.82;9.45;;;12.60;95.60;;;;;;5075821;28;20063;-78
2022/04/22 06:26:13;;;;;;;12.40;9.93;;;12.60;95.60;;;;;;5075924;28;20413;-74
2022/04/22 06:28:39;;;;;;;12.90;9.60;;;12.50;95.70;;;;;;5073437;28;20017;-79
2022/04/22 06:31:05;;;;;;;13.85;10.88;;;12.70;95.70;;;;;;5073576;28;20480;-80
2022/04/22 06:33:31;;;;;;;11.27;9.68;;;12.80;95.50;;;;;;5074450;28;20021;-85
2022/04/22 06:36:00;;;;;;;13.55;10.82;;;12.80;95.50;;;;;;5073761;28;20111;-84
2022/04/22 06:38:27;;;;;;;15.02;10.98;;;12.90;95.30;;;;;;5074516;28;20131;-75
2022/04/22 06:46:22;;;;;;;12.73;10.20;;;13.20;94.80;;;;;;5075085;28;20452;-77
2022/04/22 06:48:48;;;;;;;13.63;10.60;;;13.20;94.40;;;;;;5074795;28;20111;-77
2022/04/22 06:51:17;;;;;;;17.40;10.77;;;13.30;94.30;;;;;;5075160;28;20040;-76
2022/04/22 06:53:42;;;;;;;13.68;10.20;;;13.30;94.20;;;;;;5075264;28;20102;-75
2022/04/22 06:56:08;;;;;;;12.60;10.02;;;13.40;94.30;;;;;;5075210;28;20499;-77
2022/04/22 06:58:37;;;;;;;15.43;9.82;;;13.60;94.00;;;;;;5074338;28;20047;-75
2022/04/22 07:01:03;;;;;;;17.63;9.95;;;13.70;93.40;;;;;;5075624;28;20051;-74
2022/04/22 07:03:29;;;;;;;13.68;10.55;;;13.90;93.50;;;;;;5075450;28;20380;-74
2022/04/22 07:05:55;;;;;;;15.32;9.80;;;14.00;93.40;;;;;;5075138;28;20017;-74
2022/04/22 07:08:21;;;;;;;12.52;9.80;;;14.00;92.60;;;;;;5075456;28;20361;-74
2022/04/22 07:10:48;;;;;;;12.38;10.55;;;14.00;92.40;;;;;;5075161;28;20056;-73
2022/04/22 07:13:18;;;;;;;16.48;9.95;;;14.00;92.60;;;;;;5075675;28;20020;-73
2022/04/22 07:15:45;;;;;;;15.18;10.23;;;14.00;93.00;;;;;;5075818;28;20119;-74
2022/04/22 07:18:12;;;;;;;13.25;8.88;;;14.10;92.20;;;;;;5075303;28;20111;-74
2022/04/22 07:20:38;;;;;;;15.23;9.88;;;14.20;91.80;;;;;;5074404;28;20028;-74
2022/04/22 07:23:04;;;;;;;12.90;9.35;;;14.30;91.60;;;;;;5075791;28;20162;-74
2022/04/22 07:25:29;;;;;;;13.05;9.57;;;14.50;91.10;;;;;;5075700;28;20035;-74
2022/04/22 07:27:56;;;;;;;10.15;8.70;;;14.50;90.80;;;;;;5075221;28;20039;-74
2022/04/22 07:30:22;;;;;;;13.77;8.82;;;14.60;90.40;;;;;;5074975;28;20385;-74
2022/04/22 07:32:49;;;;;;;13.70;8.57;;;14.70;90.20;;;;;;5074997;28;20035;-74
2022/04/22 07:35:20;;;;;;;12.85;9.50;;;14.70;90.20;;;;;;5075358;28;20025;-74
2022/04/22 07:37:53;;;;;;;13.70;8.70;;;14.70;90.40;;;;;;5075391;28;20041;-74
2022/04/22 07:40:20;;;;;;;;;;;14.70;90.10;;;;;;5075502;28;20440;-73
2022/04/22 07:48:20;;;;;;;12.73;9.00;;;14.80;90.30;;;;;;5075173;28;20027;-74
2022/04/22 07:50:47;;;;;;;14.88;8.88;;;14.90;89.20;;;;;;5074686;28;20029;-74
2022/04/22 07:53:19;;;;;;;12.93;9.00;;;14.80;89.10;;;;;;5074826;28;20024;-75
2022/04/22 07:55:46;;;;;;;11.48;8.45;;;14.80;88.50;;;;;;5074602;28;20035;-74
2022/04/22 07:58:13;;;;;;;11.13;8.32;;;14.80;88.50;;;;;;5074537;28;20037;-74
2022/04/22 08:00:43;;;;;;;12.95;8.88;;;14.80;88.30;;;;;;5074408;28;20036;-75
2022/04/22 08:03:09;;;;;;;14.63;8.75;;;14.90;88.20;;;;;;5072764;28;20059;-73
2022/04/22 08:05:35;;;;;;;11.25;8.50;;;14.90;87.50;;;;;;5074548;28;20021;-74
2022/04/22 08:08:01;;;;;;;15.63;8.82;;;14.90;87.60;;;;;;5074637;28;20472;-74
2022/04/22 08:10:27;;;;;;;14.63;8.85;;;14.90;87.50;;;;;;5074145;28;20391;-74
2022/04/22 08:12:52;;;;;;;12.02;8.25;;;14.80;86.60;;;;;;5074644;28;20031;-74
2022/04/22 08:15:21;;;;;;;17.50;9.63;;;14.70;86.80;;;;;;5074692;28;20028;-74
2022/04/22 08:17:47;;;;;;;13.00;8.73;;;14.80;88.10;;;;;;5074589;28;20109;-74
2022/04/22 08:20:13;;;;;;;11.68;7.80;;;14.70;89.90;;;;;;5074217;28;20024;-74
2022/04/22 08:22:39;;;;;;;12.98;8.73;;;14.80;89.00;;;;;;5073919;28;20025;-73
2022/04/22 08:25:05;;;;;;;11.88;8.30;;;14.90;88.60;;;;;;5074363;28;20024;-74
2022/04/22 08:27:31;;;;;;;15.77;9.20;;;15.00;87.80;;;;;;5074366;28;20040;-74
2022/04/22 08:29:59;;;;;;;15.10;8.57;;;14.90;87.80;;;;;;5072751;28;20408;-74
2022/04/22 08:32:25;;;;;;;12.82;9.27;;;14.90;88.00;;;;;;5071152;28;20020;-74
2022/04/22 08:34:51;;;;;;;12.95;8.95;;;14.90;87.60;;;;;;5072750;28;20035;-75
2022/04/22 08:37:18;;;;;;;16.15;9.38;;;14.90;87.70;;;;;;5063512;28;20044;-75
2022/04/22 08:39:44;;;;;;;12.38;8.38;;;14.90;87.50;;;;;;5068062;28;20498;-75
2022/04/22 08:42:12;;;;;;;14.73;8.10;;;14.90;88.20;;;;;;5073377;28;20032;-74
2022/04/22 08:44:38;;;;;;;9.88;7.85;;;15.00;86.90;;;;;;5072625;28;20048;-74
2022/04/22 08:50:06;;;;;;;13.38;8.65;;;15.10;87.00;;;;;;5072448;28;20116;-73
2022/04/22 08:52:34;;;;;;;10.98;8.07;;;15.30;86.40;;;;;;5072469;28;20021;-76
2022/04/22 08:55:02;;;;;;;12.15;8.07;;;15.30;86.80;;;;;;5071356;28;20044;-75
2022/04/22 08:57:28;;;;;;;14.48;8.38;;;15.30;86.10;;;;;;5073202;28;20043;-73
2022/04/22 09:00:04;;;;;;;10.20;7.90;;;15.30;85.70;;;;;;5072288;28;20104;-74
2022/04/22 09:02:30;;;;;;;11.60;7.93;;;15.20;86.00;;;;;;5070381;28;20434;-74
2022/04/22 09:04:56;;;;;;;12.38;7.60;;;15.10;86.70;;;;;;5072151;28;20048;-75
2022/04/22 09:07:26;;;;;;;9.55;7.90;;;15.20;86.70;;;;;;5072180;28;20032;-74
2022/04/22 09:09:52;;;;;;;11.05;7.32;;;15.20;86.50;;;;;;5071799;28;20076;-75
2022/04/22 09:12:23;;;;;;;10.75;7.35;;;15.30;85.00;;;;;;5072293;28;20521;-74
2022/04/22 09:14:51;;;;;;;13.38;7.55;;;15.40;83.90;;;;;;5071388;28;20028;-74
2022/04/22 09:17:22;;;;;;;10.25;6.70;;;15.50;83.80;;;;;;5071853;28;20028;-73
2022/04/22 09:19:47;;;;;;;13.05;7.00;;;15.60;84.20;;;;;;5071745;28;20107;-73
2022/04/22 09:22:27;;;;;;;10.73;6.93;;;15.70;84.10;;;;;;5071491;28;20047;-74
2022/04/22 09:24:54;;;;;;;8.80;7.07;;;15.90;82.30;;;;;;5071776;28;20471;-74
2022/04/22 09:27:34;;;;;;;10.63;6.28;;;15.90;82.70;;;;;;5069578;28;20035;-74
2022/04/22 09:30:02;;;;;;;11.23;6.47;;;16.10;81.50;;;;;;5070827;28;20021;-75
2022/04/22 09:32:30;;;;;;;10.60;6.80;;;16.30;82.00;;;;;;5071758;28;20071;-73
2022/04/22 09:34:57;;;;;;;10.18;6.40;;;16.50;82.50;;;;;;5071693;28;20102;-73
2022/04/22 09:42:57;;;;;;;10.75;6.20;;;17.30;78.40;;;;;;5070977;28;20059;-74
2022/04/22 09:45:44;;;;;;;8.25;5.50;;;17.50;77.20;;;;;;5072451;28;20484;-75
2022/04/22 09:48:14;;;;;;;9.75;5.70;;;17.70;76.70;;;;;;5072338;28;20036;-75
2022/04/22 09:50:42;;;;;;;9.25;5.30;;;17.80;75.60;;;;;;5071492;28;20364;-75
2022/04/22 09:53:09;;;;;;;7.32;5.07;;;17.80;74.20;;;;;;5071473;28;20099;-75
2022/04/22 09:55:49;;;;;;;7.85;5.45;;;17.90;74.00;;;;;;5071136;28;20061;-76
2022/04/22 09:58:35;;;;;;;6.28;4.68;;;17.80;74.20;;;;;;5068909;28;20198;-76
2022/04/22 10:01:04;;;;;;;7.85;4.70;;;17.70;73.50;;;;;;5070945;28;20033;-76
2022/04/22 10:03:31;;;;;;;8.88;4.60;;;17.90;73.80;;;;;;5071854;28;20036;-76
2022/04/22 10:05:58;;;;;;;9.52;4.47;;;18.00;73.50;;;;;;5071120;28;20028;-76
2022/04/22 10:08:25;;;;;;;7.35;4.10;;;18.00;71.40;;;;;;5071561;28;20361;-76
2022/04/22 10:10:52;;;;;;;5.95;4.53;;;18.20;70.80;;;;;;5070920;28;20445;-76
2022/04/22 10:13:21;;;;;;;8.05;4.82;;;18.30;72.00;;;;;;5071642;28;20129;-76
2022/04/22 10:15:48;;;;;;;6.03;4.05;;;18.30;71.60;;;;;;5071396;28;20021;-76
2022/04/22 10:18:15;;;;;;;8.50;4.53;;;18.40;71.80;;;;;;5071066;28;20086;-76
2022/04/22 10:20:43;;;;;;;9.43;5.10;;;18.40;73.20;;;;;;5071519;28;20035;-76
2022/04/22 10:23:09;;;;;;;10.18;4.47;;;18.60;70.90;;;;;;5068792;28;20036;-76
2022/04/22 10:25:35;;;;;;;7.72;4.40;;;18.80;68.50;;;;;;5065865;28;20024;-76
2022/04/22 10:28:05;;;;;;;8.48;5.18;;;18.90;69.90;;;;;;5071369;28;20100;-76
2022/04/22 10:30:31;;;;;;;8.98;4.00;;;18.80;69.60;;;;;;5070882;28;20111;-76
2022/04/22 10:32:58;;;;;;;8.50;4.60;;;18.70;68.90;;;;;;5071384;28;20024;-75
2022/04/22 10:35:24;;;;;;;7.15;4.60;;;18.50;69.30;;;;;;5070932;28;20028;-77
2022/04/22 10:37:52;;;;;;;9.65;4.63;;;18.50;69.80;;;;;;5071287;28;20383;-76
2022/04/22 10:40:20;;;;;;;6.63;4.32;;;18.60;70.40;;;;;;5070939;28;20425;-76
2022/04/22 10:42:46;;;;;;;7.25;4.45;;;18.60;67.20;;;;;;5071356;28;20035;-77
2022/04/22 10:47:56;;;;;;;8.38;4.47;;;18.30;67.50;;;;;;5071907;28;20040;-75
2022/04/22 10:50:43;;;;;;;13.65;3.80;;;18.30;67.90;;;;;;5071788;28;20028;-76
2022/04/22 10:53:25;;;;;;;7.75;4.15;;;18.20;67.30;;;;;;5070195;28;20029;-75
2022/04/22 10:55:51;;;;;;;10.27;4.75;;;18.10;68.00;;;;;;5072640;28;20025;-76
2022/04/22 10:58:16;;;;;;;5.07;3.85;;;18.30;68.40;;;;;;5074684;28;20041;-74
2022/04/22 11:00:44;;;;;;;7.53;3.80;;;18.40;67.20;;;;;;5076016;28;20027;-74
2022/04/22 11:03:15;;;;;;;4.82;3.70;;;18.70;68.10;;;;;;5075648;28;20055;-75
2022/04/22 11:05:54;;;;;;;7.75;4.45;;;19.00;65.90;;;;;;5075662;28;20029;-74
2022/04/22 11:08:31;;;;;;;8.15;4.25;;;19.30;64.80;;;;;;5075602;28;20039;-74
2022/04/22 11:11:00;;;;;;;10.38;3.70;;;19.30;62.90;;;;;;5075591;28;20047;-74
2022/04/22 11:13:47;;;;;;;5.70;3.60;;;19.20;63.40;;;;;;5075591;28;20082;-74
2022/04/22 11:16:32;;;;;;;5.15;3.13;;;19.10;62.10;;;;;;5073268;28;20023;-74
2022/04/22 11:19:19;;;;;;;6.90;3.30;;;18.80;61.90;;;;;;5075405;28;20032;-75
2022/04/22 11:21:53;;;;;;;5.72;2.83;;;18.80;61.90;;;;;;5075668;28;20085;-75
2022/04/22 11:24:30;;;;;;;4.65;2.45;;;19.00;61.70;;;;;;5075648;28;20115;-74
2022/04/22 11:27:26;;;;;;;9.10;2.90;;;18.90;60.10;;;;;;5075465;28;20021;-75
2022/04/22 11:29:52;;;;;;;6.22;3.15;;;19.00;59.50;;;;;;5074410;28;20039;-75
2022/04/22 11:32:23;;;;;;;8.23;3.17;;;19.00;59.00;;;;;;5075299;28;20078;-75
2022/04/22 11:35:18;;;;;;;3.63;2.47;;;19.20;58.40;;;;;;5075297;28;20037;-75
2022/04/22 11:37:44;;;;;;;3.58;2.97;;;19.30;57.00;;;;;;5075229;28;20036;-75
2022/04/22 11:40:18;;;;;;;3.70;2.50;;;19.50;56.10;;;;;;5075287;28;20023;-74
2022/04/22 11:42:44;;;;;;;5.63;2.55;;;19.40;55.50;;;;;;5075225;28;20031;-75
2022/04/22 11:45:13;;;;;;;4.60;2.20;;;19.30;57.20;;;;;;5075128;28;20025;-75
2022/04/22 11:47:39;;;;;;;7.07;2.38;;;19.40;55.30;;;;;;5075270;28;20024;-75
2022/04/22 11:50:06;;;;;;;5.93;2.33;;;19.30;54.90;;;;;;5074289;28;20029;-77
2022/04/22 11:52:32;;;;;;;4.93;2.08;;;19.20;56.70;;;;;;5074434;28;20047;-78
2022/04/22 11:55:03;;;;;;;5.68;2.22;;;19.30;56.40;;;;;;5073475;28;20515;-76
2022/04/22 11:57:39;;;;;;;5.70;2.10;;;19.20;54.30;;;;;;5073153;28;20036;-73
2022/04/22 12:05:46;;;;;;;5.90;2.60;;;19.30;56.30;;;;;;5072709;28;20391;-77
2022/04/22 12:08:13;;;;;;;4.55;2.72;;;19.30;56.00;;;;;;5073514;28;20048;-78
2022/04/22 12:10:39;;;;;;;8.27;2.17;;;19.30;53.90;;;;;;5072815;28;20468;-78
2022/04/22 12:13:06;;;;;;;7.40;2.42;;;19.20;54.60;;;;;;5071767;28;20085;-75
2022/04/22 12:15:39;;;;;;;6.45;2.72;;;19.10;54.80;;;;;;5073107;28;20032;-76
2022/04/22 12:18:04;;;;;;;4.13;2.50;;;19.10;55.20;;;;;;5072873;28;20067;-76
2022/04/22 12:20:30;;;;;;;5.82;3.05;;;19.10;54.40;;;;;;5072367;28;20029;-75
2022/04/22 12:22:56;;;;;;;6.88;2.80;;;19.10;55.00;;;;;;5080835;28;20135;-76
2022/04/22 12:25:23;;;;;;;5.45;2.45;;;19.30;56.70;;;;;;5071041;28;20104;-76
2022/04/22 12:28:07;;;;;;;4.45;2.72;;;19.50;55.70;;;;;;5073010;28;20076;-75
2022/04/22 12:30:37;;;;;;;5.55;3.05;;;19.50;54.40;;;;;;5071685;28;20028;-74
2022/04/22 12:33:04;;;;;;;6.70;2.78;;;19.60;55.00;;;;;;5070128;28;20039;-74
2022/04/22 12:35:30;;;;;;;5.10;2.70;;;19.70;55.50;;;;;;5072032;28;20028;-75
2022/04/22 12:37:57;;;;;;;8.45;2.83;;;19.80;55.10;;;;;;5072409;28;20364;-75
2022/04/22 12:40:23;;;;;;;6.05;2.70;;;19.90;54.20;;;;;;5072388;28;20024;-74
2022/04/22 12:42:49;;;;;;;5.20;2.60;;;20.00;53.10;;;;;;5072813;28;20388;-75
2022/04/22 12:53:50;;;;;;;7.35;2.88;;;20.20;53.20;;;;;;5073008;28;20082;-75
2022/04/22 12:56:24;;;;;;;6.00;3.08;;;20.20;52.30;;;;;;5073406;28;20043;-74
2022/04/22 12:58:50;;;;;;;9.98;3.75;;;19.90;52.40;;;;;;5072388;28;20098;-75
2022/04/22 13:01:20;;;;;;;4.43;2.40;;;19.80;52.40;;;;;;5069711;28;20468;-75
2022/04/22 13:03:46;;;;;;;4.93;2.60;;;19.80;52.70;;;;;;5072055;28;20040;-75
2022/04/22 13:06:14;;;;;;;6.38;2.80;;;19.80;53.40;;;;;;5071792;28;20032;-75
2022/04/22 13:08:40;;;;;;;4.43;2.60;;;19.80;52.90;;;;;;5070061;28;20430;-74
2022/04/22 13:11:08;;;;;;;6.78;2.40;;;19.70;52.40;;;;;;5071373;28;20054;-75
2022/04/22 13:13:33;;;;;;;5.70;2.08;;;19.70;53.20;;;;;;5071686;28;20104;-75
2022/04/22 13:15:59;;;;;;;6.35;2.58;;;19.70;52.30;;;;;;5072013;28;20107;-76
2022/04/22 13:18:25;;;;;;;4.43;2.00;;;19.70;52.50;;;;;;5071056;28;20083;-75
2022/04/22 13:20:52;;;;;;;9.55;4.13;;;19.60;52.20;;;;;;5071620;28;20066;-75
2022/04/22 13:23:18;;;;;;;9.52;2.55;;;19.40;52.30;;;;;;5071789;28;20476;-75
2022/04/22 13:25:44;;;;;;;7.45;2.33;;;19.20;53.40;;;;;;5071562;28;20089;-75
2022/04/22 13:28:10;;;;;;;4.78;2.70;;;19.10;53.50;;;;;;5071730;28;20024;-75
2022/04/22 13:30:36;;;;;;;4.80;2.40;;;19.10;53.80;;;;;;5072148;28;20051;-75
2022/04/22 13:33:01;;;;;;;5.15;2.28;;;18.90;53.10;;;;;;5072016;28;20472;-75
2022/04/22 13:35:27;;;;;;;5.60;2.40;;;18.90;53.80;;;;;;5071745;28;20074;-75
2022/04/22 13:37:53;;;;;;;4.22;2.30;;;18.90;53.20;;;;;;5071190;28;20028;-75
2022/04/22 13:40:19;;;;;;;5.10;2.42;;;18.90;53.60;;;;;;5071873;28;20093;-75
2022/04/22 13:42:46;;;;;;;5.18;2.38;;;19.00;54.10;;;;;;5071284;28;20074;-75
2022/04/22 13:53:24;;;;;;;6.30;2.85;;;19.00;54.60;;;;;;5071186;28;20082;-75
2022/04/22 13:55:50;;;;;;;4.85;2.83;;;19.20;54.20;;;;;;5071248;28;20021;-75
2022/04/22 13:58:16;;;;;;;6.40;2.85;;;19.20;54.00;;;;;;5071159;28;20032;-75